createdAt,value
2018-10-11T00:01:42.896Z,22.67
2018-10-11T00:04:11.591Z,22.22
2018-10-11T00:06:40.277Z,26.05
2018-10-11T00:09:10.091Z,22.20
2018-10-11T00:11:39.068Z,25.23
2018-10-11T00:14:08.068Z,26.50
2018-10-11T00:16:36.766Z,28.03
2018-10-11T00:19:05.452Z,28.60
2018-10-11T00:21:34.132Z,26.53
2018-10-11T00:24:02.824Z,27.80
2018-10-11T00:26:31.504Z,26.73
2018-10-11T00:29:00.205Z,23.30
2018-10-11T00:31:28.907Z,23.27
2018-10-11T00:33:57.604Z,24.40
2018-10-11T00:36:26.323Z,25.47
2018-10-11T00:38:55.016Z,26.60
2018-10-11T00:41:23.725Z,24.77
2018-10-11T00:43:52.424Z,23.43
2018-10-11T00:46:21.108Z,24.10
2018-10-11T00:48:49.795Z,23.00
2018-10-11T00:51:18.476Z,22.30
2018-10-11T00:53:47.163Z,21.53
2018-10-11T00:56:15.848Z,24.63
2018-10-11T00:58:44.544Z,26.87
2018-10-11T01:01:13.212Z,24.27
2018-10-11T01:03:41.940Z,25.50
2018-10-11T01:06:11.155Z,25.10
2018-10-11T01:08:40.161Z,21.93
2018-10-11T01:11:09.140Z,26.03
2018-10-11T01:13:37.942Z,22.53
2018-10-11T01:16:06.616Z,23.90
2018-10-11T01:18:35.307Z,28.40
2018-10-11T01:21:03.984Z,25.10
2018-10-11T01:23:32.729Z,26.97
2018-10-11T01:26:01.404Z,25.13
2018-10-11T01:28:30.092Z,22.50
2018-10-11T01:31:04.285Z,24.83
2018-10-11T01:33:32.968Z,23.13
2018-10-11T01:36:01.643Z,19.70
2018-10-11T01:38:30.324Z,25.67
2018-10-11T01:40:59.803Z,21.50
2018-10-11T01:43:28.515Z,19.93
2018-10-11T01:45:57.212Z,21.30
2018-10-11T01:48:25.932Z,26.27
2018-10-11T01:50:54.620Z,23.97
2018-10-11T01:53:23.327Z,22.43
2018-10-11T01:55:52.015Z,22.30
2018-10-11T01:58:20.756Z,22.40
2018-10-11T02:00:49.435Z,21.30
2018-10-11T02:03:18.147Z,23.03
2018-10-11T02:05:46.844Z,23.17
2018-10-11T02:08:15.548Z,30.67
2018-10-11T02:10:44.245Z,23.70
2018-10-11T02:13:12.960Z,23.50
2018-10-11T02:15:41.652Z,22.97
2018-10-11T02:18:10.361Z,24.13
2018-10-11T02:20:39.069Z,21.67
2018-10-11T02:23:07.769Z,22.20
2018-10-11T02:25:36.479Z,23.37
2018-10-11T02:28:05.317Z,20.83
2018-10-11T02:30:34.013Z,21.80
2018-10-11T02:33:03.032Z,20.37
2018-10-11T02:35:31.772Z,26.00
2018-10-11T02:38:00.455Z,23.83
2018-10-11T02:40:29.159Z,19.33
2018-10-11T02:42:57.844Z,28.57
2018-10-11T02:45:26.546Z,24.23
2018-10-11T02:47:55.232Z,27.98
2018-10-11T02:50:23.925Z,28.63
2018-10-11T02:52:52.599Z,25.43
2018-10-11T02:55:24.283Z,20.48
2018-10-11T02:58:04.420Z,22.13
2018-10-11T03:00:33.853Z,27.37
2018-10-11T03:03:06.308Z,18.93
2018-10-11T03:05:36.644Z,20.33
2018-10-11T03:08:06.543Z,20.68
2018-10-11T03:10:35.227Z,19.60
2018-10-11T03:13:05.137Z,21.73
2018-10-11T03:15:34.223Z,20.90
2018-10-11T03:18:02.943Z,17.73
2018-10-11T03:20:31.583Z,21.63
2018-10-11T03:23:00.277Z,20.20
2018-10-11T03:25:28.973Z,25.73
2018-10-11T03:27:57.650Z,23.40
2018-10-11T03:30:26.345Z,23.17
2018-10-11T03:32:55.166Z,20.02
2018-10-11T03:35:24.001Z,18.60
2018-10-11T03:37:52.685Z,21.17
2018-10-11T03:40:21.373Z,23.60
2018-10-11T03:42:50.064Z,19.97
2018-10-11T03:45:18.784Z,18.67
2018-10-11T03:47:47.472Z,23.03
2018-10-11T03:50:16.172Z,18.53
2018-10-11T03:52:44.848Z,16.73
2018-10-11T03:55:13.676Z,20.27
2018-10-11T03:57:42.364Z,18.70
2018-10-11T04:00:11.061Z,20.87
2018-10-11T04:02:39.834Z,18.47
2018-10-11T04:05:08.523Z,23.87
2018-10-11T04:07:37.285Z,19.90
2018-10-11T04:10:06.230Z,19.47
2018-10-11T04:12:34.904Z,22.37
2018-10-11T04:15:03.617Z,23.73
2018-10-11T04:17:32.300Z,19.43
2018-10-11T04:20:00.992Z,24.27
2018-10-11T04:22:29.675Z,20.23
2018-10-11T04:24:58.376Z,20.00
2018-10-11T04:27:27.057Z,19.67
2018-10-11T04:29:55.780Z,19.07
2018-10-11T04:32:24.449Z,15.45
2018-10-11T04:34:53.169Z,17.45
2018-10-11T04:37:21.857Z,18.60
2018-10-11T04:39:50.556Z,17.43
2018-10-11T04:42:19.236Z,21.63
2018-10-11T04:44:47.992Z,17.63
2018-10-11T04:47:16.680Z,18.27
2018-10-11T04:49:45.380Z,19.00
2018-10-11T04:52:14.071Z,22.10
2018-10-11T04:54:42.781Z,17.67
2018-10-11T04:57:11.480Z,16.90
2018-10-11T04:59:40.220Z,17.33
2018-10-11T05:02:08.872Z,18.20
2018-10-11T05:04:37.567Z,20.17
2018-10-11T05:07:06.255Z,16.00
2018-10-11T05:09:34.960Z,17.33
2018-10-11T05:12:03.784Z,21.20
2018-10-11T05:14:32.752Z,18.13
2018-10-11T05:17:01.697Z,24.13
2018-10-11T05:19:30.372Z,16.00
2018-10-11T05:21:59.069Z,13.70
2018-10-11T05:24:27.796Z,18.73
2018-10-11T05:26:56.645Z,25.57
2018-10-11T05:29:25.915Z,20.10
2018-10-11T05:31:55.120Z,13.87
2018-10-11T05:34:23.854Z,19.27
2018-10-11T05:36:52.565Z,16.53
2018-10-11T05:39:21.775Z,22.90
2018-10-11T05:41:50.635Z,19.23
2018-10-11T05:44:19.355Z,15.63
2018-10-11T05:46:48.013Z,14.97
2018-10-11T05:49:16.793Z,19.43
2018-10-11T05:51:45.501Z,20.83
2018-10-11T05:54:14.228Z,17.73
2018-10-11T05:56:43.509Z,16.90
2018-10-11T05:59:12.127Z,21.80
2018-10-11T06:01:40.815Z,18.67
2018-10-11T06:04:10.771Z,17.13
2018-10-11T06:06:39.397Z,18.17
2018-10-11T06:09:09.644Z,18.07
2018-10-11T06:11:38.432Z,16.97
2018-10-11T06:14:07.125Z,18.57
2018-10-11T06:16:35.807Z,20.00
2018-10-11T06:19:04.492Z,16.80
2018-10-11T06:21:33.180Z,18.53
2018-10-11T06:24:01.855Z,19.17
2018-10-11T06:26:30.535Z,14.63
2018-10-11T06:28:59.401Z,22.73
2018-10-11T06:31:28.127Z,12.97
2018-10-11T06:33:56.808Z,14.13
2018-10-11T06:36:26.024Z,19.93
2018-10-11T06:38:56.425Z,16.73
2018-10-11T06:41:25.449Z,15.03
2018-10-11T06:43:54.153Z,17.43
2018-10-11T06:46:22.844Z,18.60
2018-10-11T06:48:51.552Z,19.27
2018-10-11T06:51:20.239Z,20.83
2018-10-11T06:53:50.500Z,42.73
2018-10-11T06:56:19.543Z,17.00
2018-10-11T06:58:48.236Z,18.37
2018-10-11T07:01:16.968Z,17.70
2018-10-11T07:03:45.738Z,21.60
2018-10-11T07:06:14.446Z,20.33
2018-10-11T07:08:43.149Z,17.67
2018-10-11T07:11:11.849Z,17.30
2018-10-11T07:13:40.537Z,16.67
2018-10-11T07:16:09.237Z,19.80
2018-10-11T07:18:37.916Z,14.33
2018-10-11T07:21:06.618Z,19.70
2018-10-11T07:23:35.301Z,21.17
2018-10-11T07:26:04.122Z,16.93
2018-10-11T07:28:32.691Z,14.00
2018-10-11T07:31:01.379Z,16.50
2018-10-11T07:33:30.106Z,15.18
2018-10-11T07:35:58.812Z,18.43
2018-10-11T07:38:27.530Z,14.27
2018-10-11T07:40:56.299Z,18.13
2018-10-11T07:43:24.941Z,28.43
2018-10-11T07:45:53.637Z,22.90
2018-10-11T07:48:22.315Z,19.33
2018-10-11T07:50:51.004Z,15.80
2018-10-11T07:53:19.691Z,17.17
2018-10-11T07:55:48.376Z,21.20
2018-10-11T07:58:17.056Z,15.40
2018-10-11T08:00:45.736Z,15.67
2018-10-11T08:03:14.472Z,21.93
2018-10-11T08:05:43.183Z,24.43
2018-10-11T08:08:11.859Z,17.50
2018-10-11T08:10:40.666Z,18.93
2018-10-11T08:13:09.245Z,14.73
2018-10-11T08:15:37.922Z,17.50
2018-10-11T08:18:06.965Z,11.25
2018-10-11T08:20:35.710Z,16.10
2018-10-11T08:23:04.496Z,16.50
2018-10-11T08:25:33.530Z,13.37
2018-10-11T08:28:01.872Z,19.07
2018-10-11T08:30:30.557Z,16.53
2018-10-11T08:32:59.277Z,16.37
2018-10-11T08:35:27.934Z,14.03
2018-10-11T08:37:56.788Z,16.83
2018-10-11T08:40:25.304Z,18.77
2018-10-11T08:42:53.989Z,15.50
2018-10-11T08:45:22.716Z,16.60
2018-10-11T08:47:51.402Z,13.03
2018-10-11T08:50:20.106Z,16.70
2018-10-11T08:52:48.761Z,14.70
2018-10-11T08:55:18.322Z,14.83
2018-10-11T08:57:47.014Z,13.13
2018-10-11T09:00:15.688Z,14.80
2018-10-11T09:02:44.389Z,14.87
2018-10-11T09:05:13.185Z,13.57
2018-10-11T09:07:41.876Z,15.07
2018-10-11T09:10:10.555Z,14.50
2018-10-11T09:12:39.324Z,12.93
2018-10-11T09:15:08.667Z,12.93
2018-10-11T09:17:37.357Z,20.43
2018-10-11T09:20:06.053Z,15.73
2018-10-11T09:22:34.743Z,16.77
2018-10-11T09:25:03.430Z,14.30
2018-10-11T09:27:32.115Z,13.17
2018-10-11T09:30:00.813Z,15.40
2018-10-11T09:32:29.584Z,13.83
2018-10-11T09:34:58.268Z,17.33
2018-10-11T09:37:26.957Z,13.67
2018-10-11T09:39:55.637Z,14.20
2018-10-11T09:42:24.318Z,13.77
2018-10-11T09:44:53.016Z,17.00
2018-10-11T09:47:21.721Z,14.18
2018-10-11T09:49:50.395Z,13.50
2018-10-11T09:52:19.084Z,17.77
2018-10-11T09:55:00.791Z,15.23
2018-10-11T09:57:30.937Z,12.40
2018-10-11T10:00:00.534Z,14.63
2018-10-11T10:02:29.853Z,15.10
2018-10-11T10:05:01.900Z,12.83
2018-10-11T10:07:30.593Z,12.63
2018-10-11T10:09:59.372Z,10.50
2018-10-11T10:12:28.003Z,15.40
2018-10-11T10:14:56.715Z,12.73
2018-10-11T10:17:25.384Z,12.80
2018-10-11T10:19:54.140Z,11.60
2018-10-11T10:22:22.836Z,12.27
2018-10-11T10:24:51.526Z,12.97
2018-10-11T10:27:20.318Z,21.40
2018-10-11T10:29:48.908Z,12.53
2018-10-11T10:32:17.664Z,15.20
2018-10-11T10:34:46.336Z,14.67
2018-10-11T10:37:15.035Z,11.27
2018-10-11T10:39:43.817Z,12.43
2018-10-11T10:42:12.528Z,11.73
2018-10-11T10:44:41.299Z,14.90
2018-10-11T10:47:10.027Z,11.10
2018-10-11T10:49:38.712Z,12.67
2018-10-11T10:52:07.435Z,10.80
2018-10-11T10:54:36.632Z,11.73
2018-10-11T10:57:05.919Z,14.47
2018-10-11T10:59:34.652Z,13.30
2018-10-11T11:02:03.340Z,16.30
2018-10-11T11:04:32.027Z,17.93
2018-10-11T11:07:01.171Z,13.10
2018-10-11T11:09:30.273Z,20.80
2018-10-11T11:11:58.973Z,14.67
2018-10-11T11:14:27.653Z,10.80
2018-10-11T11:16:56.343Z,10.67
2018-10-11T11:19:25.103Z,10.40
2018-10-11T11:21:53.813Z,11.77
2018-10-11T11:24:22.507Z,12.40
2018-10-11T11:26:51.216Z,14.57
2018-10-11T11:29:20.029Z,18.20
2018-10-11T11:31:48.707Z,13.17
2018-10-11T11:34:17.421Z,14.00
2018-10-11T11:36:46.110Z,16.47
2018-10-11T11:39:14.813Z,15.20
2018-10-11T11:41:43.508Z,12.10
2018-10-11T11:44:12.197Z,19.23
2018-10-11T11:46:40.884Z,13.30
2018-10-11T11:49:09.593Z,11.97
2018-10-11T11:51:38.263Z,20.27
2018-10-11T11:54:12.553Z,15.83
2018-10-11T11:56:41.350Z,15.20
2018-10-11T11:59:10.138Z,13.67
2018-10-11T12:01:38.764Z,19.10
2018-10-11T12:04:07.536Z,14.30
2018-10-11T12:06:36.232Z,12.30
2018-10-11T12:09:09.279Z,11.57
2018-10-11T12:11:37.956Z,14.90
2018-10-11T12:14:07.028Z,12.67
2018-10-11T12:16:35.986Z,10.67
2018-10-11T12:19:04.619Z,10.77
2018-10-11T12:21:34.095Z,13.80
2018-10-11T12:24:02.849Z,13.03
2018-10-11T12:26:31.539Z,13.07
2018-10-11T12:29:00.341Z,14.30
2018-10-11T12:31:28.948Z,12.23
2018-10-11T12:33:57.636Z,16.60
2018-10-11T12:36:26.348Z,17.65
2018-10-11T12:38:56.032Z,17.85
2018-10-11T12:41:24.081Z,13.83
2018-10-11T12:43:52.900Z,12.57
2018-10-11T12:46:21.580Z,14.30
2018-10-11T12:48:50.268Z,18.73
2018-10-11T12:51:18.971Z,15.10
2018-10-11T12:53:48.633Z,14.10
2018-10-11T12:56:16.470Z,15.83
2018-10-11T12:58:45.151Z,15.43
2018-10-11T13:01:17.271Z,17.20
2018-10-11T13:03:42.566Z,17.10
2018-10-11T13:06:11.336Z,20.30
2018-10-11T13:08:40.101Z,14.50
2018-10-11T13:11:08.850Z,13.60
2018-10-11T13:13:37.536Z,17.43
2018-10-11T13:16:06.224Z,16.10
2018-10-11T13:18:35.026Z,17.83
2018-10-11T13:21:03.767Z,17.47
2018-10-11T13:23:32.468Z,16.70
2018-10-11T13:26:01.165Z,16.40
2018-10-11T13:28:29.860Z,17.23
2018-10-11T13:30:58.539Z,14.43
2018-10-11T13:33:27.505Z,16.23
2018-10-11T13:35:56.248Z,16.93
2018-10-11T13:38:24.937Z,19.70
2018-10-11T13:40:55.813Z,16.83
2018-10-11T13:43:22.475Z,21.37
2018-10-11T13:45:54.560Z,25.57
2018-10-11T13:48:20.052Z,19.83
2018-10-11T13:50:49.216Z,16.70
2018-10-11T13:53:24.526Z,13.37
2018-10-11T13:55:50.833Z,14.07
2018-10-11T13:58:15.461Z,15.87
2018-10-11T14:00:44.320Z,22.40
2018-10-11T14:03:13.036Z,18.07
2018-10-11T14:05:41.732Z,22.50
2018-10-11T14:08:10.625Z,15.37
2018-10-11T14:10:39.657Z,17.82
2018-10-11T14:13:12.983Z,18.60
2018-10-11T14:15:36.993Z,15.30
2018-10-11T14:18:09.284Z,18.50
2018-10-11T14:20:34.355Z,18.40
2018-10-11T14:23:03.204Z,16.90
2018-10-11T14:25:32.290Z,16.83
2018-10-11T14:28:01.076Z,20.57
2018-10-11T14:30:29.837Z,22.23
2018-10-11T14:32:58.514Z,19.73
2018-10-11T14:37:11.700Z,17.60
2018-10-11T14:39:40.256Z,15.98
2018-10-11T14:42:08.950Z,23.40
2018-10-11T14:44:38.044Z,27.07
2018-10-11T14:47:06.988Z,19.63
2018-10-11T14:49:35.699Z,15.53
2018-10-11T14:52:04.393Z,16.93
2018-10-11T14:54:34.843Z,13.57
2018-10-11T14:57:04.961Z,18.77
2018-10-11T14:59:33.708Z,18.97
2018-10-11T15:02:02.337Z,18.63
2018-10-11T15:04:31.483Z,16.60
2018-10-11T15:07:00.936Z,13.60
2018-10-11T15:09:30.016Z,13.87
2018-10-11T15:11:58.714Z,15.83
2018-10-11T15:14:27.465Z,17.77
2018-10-11T15:16:56.752Z,17.00
2018-10-11T15:19:25.815Z,17.73
2018-10-11T15:21:54.964Z,15.83
2018-10-11T15:24:23.659Z,18.53
2018-10-11T15:26:52.412Z,18.57
2018-10-11T15:29:21.500Z,14.27
2018-10-11T15:31:50.963Z,17.63
2018-10-11T15:34:20.052Z,16.70
2018-10-11T15:36:48.880Z,17.07
2018-10-11T15:39:17.592Z,19.10
2018-10-11T15:41:46.393Z,18.77
2018-10-11T15:44:15.616Z,19.77
2018-10-11T15:46:44.548Z,17.90
2018-10-11T15:49:13.180Z,22.77
2018-10-11T15:51:41.912Z,16.73
2018-10-11T15:54:10.901Z,22.90
2018-10-11T15:56:39.796Z,20.73
2018-10-11T15:59:08.709Z,18.47
2018-10-11T16:01:37.404Z,22.40
2018-10-11T16:04:06.100Z,18.27
2018-10-11T16:06:34.851Z,20.00
2018-10-11T16:09:05.004Z,24.10
2018-10-11T16:11:33.865Z,21.83
2018-10-11T16:14:02.700Z,23.70
2018-10-11T16:16:31.399Z,19.53
2018-10-11T16:19:00.101Z,19.70
2018-10-11T16:21:29.092Z,21.10
2018-10-11T16:23:57.783Z,19.93
2018-10-11T16:26:26.616Z,20.63
2018-10-11T16:28:55.507Z,20.03
2018-10-11T16:31:24.229Z,17.47
2018-10-11T16:33:52.924Z,21.80
2018-10-11T16:36:21.722Z,20.83
2018-10-11T16:38:50.551Z,22.53
2018-10-11T16:41:19.379Z,21.83
2018-10-11T16:43:48.093Z,23.47
2018-10-11T16:46:16.825Z,24.33
2018-10-11T16:48:45.532Z,21.37
2018-10-11T16:51:14.315Z,25.70
2018-10-11T16:53:43.036Z,23.27
2018-10-11T16:56:11.732Z,21.97
2018-10-11T16:58:40.449Z,29.60
2018-10-11T17:01:09.216Z,32.77
2018-10-11T17:03:37.932Z,27.93
2018-10-11T17:06:07.225Z,30.73
2018-10-11T17:08:36.080Z,28.03
2018-10-11T17:11:04.779Z,20.57
2018-10-11T17:13:33.501Z,19.35
2018-10-11T17:16:02.229Z,21.00
2018-10-11T17:18:30.941Z,20.80
2018-10-11T17:20:59.708Z,21.73
2018-10-11T17:23:28.395Z,22.53
2018-10-11T17:25:57.148Z,22.63
2018-10-11T17:28:25.884Z,29.13
2018-10-11T17:30:54.580Z,49.47
2018-10-11T17:33:23.281Z,29.70
2018-10-11T17:35:51.976Z,22.13
2018-10-11T17:38:20.672Z,25.07
2018-10-11T17:40:49.408Z,21.37
2018-10-11T17:43:18.197Z,20.17
2018-10-11T17:45:46.905Z,22.90
2018-10-11T17:48:15.595Z,27.60
2018-10-11T17:50:44.312Z,22.33
2018-10-11T17:53:13.038Z,23.20
2018-10-11T17:55:41.748Z,20.57
2018-10-11T17:58:10.435Z,23.97
2018-10-11T18:00:39.124Z,25.43
2018-10-11T18:03:07.803Z,21.37
2018-10-11T18:05:36.500Z,22.77
2018-10-11T18:08:05.214Z,30.87
2018-10-11T18:10:33.961Z,22.83
2018-10-11T18:13:02.687Z,23.10
2018-10-11T18:15:31.380Z,21.13
2018-10-11T18:18:00.094Z,23.23
2018-10-11T18:20:28.776Z,20.87
2018-10-11T18:22:57.480Z,21.60
2018-10-11T18:25:26.172Z,22.30
2018-10-11T18:27:54.908Z,25.63
2018-10-11T18:30:23.592Z,23.67
2018-10-11T18:32:52.291Z,20.93
2018-10-11T18:35:20.993Z,24.93
2018-10-11T18:37:49.683Z,22.80
2018-10-11T18:40:18.368Z,29.20
2018-10-11T18:42:47.053Z,21.33
2018-10-11T18:45:15.821Z,24.73
2018-10-11T18:47:44.507Z,19.70
2018-10-11T18:50:13.212Z,21.20
2018-10-11T18:52:41.904Z,21.80
2018-10-11T18:55:10.593Z,26.20
2018-10-11T18:57:39.339Z,26.97
2018-10-11T19:00:08.245Z,28.10
2018-10-11T19:02:36.953Z,23.83
2018-10-11T19:05:05.665Z,24.70
2018-10-11T19:07:34.361Z,18.63
2018-10-11T19:10:03.045Z,25.03
2018-10-11T19:12:31.744Z,24.13
2018-10-11T19:15:00.420Z,22.17
2018-10-11T19:17:29.117Z,22.53
2018-10-11T19:19:57.812Z,24.03
2018-10-11T19:22:26.514Z,27.63
2018-10-11T19:24:55.196Z,21.97
2018-10-11T19:27:23.975Z,21.77
2018-10-11T19:29:52.655Z,25.57
2018-10-11T19:32:21.373Z,19.20
2018-10-11T19:34:50.120Z,23.67
2018-10-11T19:37:19.084Z,22.70
2018-10-11T19:39:47.777Z,19.97
2018-10-11T19:42:16.469Z,27.17
2018-10-11T19:44:45.262Z,18.50
2018-10-11T19:47:14.084Z,25.97
2018-10-11T19:49:42.776Z,22.43
2018-10-11T19:52:11.536Z,22.47
2018-10-11T19:54:40.251Z,23.67
2018-10-11T19:57:09.009Z,39.70
2018-10-11T19:59:37.708Z,21.48
2018-10-11T20:02:06.724Z,19.27
2018-10-11T20:04:35.427Z,22.10
2018-10-11T20:07:04.155Z,21.13
2018-10-11T20:09:32.863Z,22.60
2018-10-11T20:12:01.594Z,22.37
2018-10-11T20:14:30.290Z,26.00
2018-10-11T20:16:58.999Z,24.47
2018-10-11T20:19:27.779Z,22.17
2018-10-11T20:21:56.466Z,23.80
2018-10-11T20:24:25.264Z,28.47
2018-10-11T20:26:54.056Z,23.37
2018-10-11T20:29:22.829Z,23.60
2018-10-11T20:31:51.539Z,28.33
2018-10-11T20:34:20.305Z,25.80
2018-10-11T20:36:49.010Z,22.53
2018-10-11T20:39:17.691Z,25.80
2018-10-11T20:41:46.411Z,23.07
2018-10-11T20:44:15.117Z,25.87
2018-10-11T20:46:43.823Z,25.30
2018-10-11T20:49:12.517Z,23.27
2018-10-11T20:51:41.340Z,21.67
2018-10-11T20:54:09.926Z,23.37
2018-10-11T20:56:38.676Z,21.67
2018-10-11T20:59:08.175Z,26.00
2018-10-11T21:01:36.884Z,23.83
2018-10-11T21:04:05.596Z,28.93
2018-10-11T21:06:34.296Z,22.47
2018-10-11T21:09:03.068Z,21.50
2018-10-11T21:11:31.780Z,21.03
2018-10-11T21:14:00.491Z,25.72
2018-10-11T21:16:29.209Z,24.77
2018-10-11T21:18:57.919Z,26.10
2018-10-11T21:21:26.615Z,28.40
2018-10-11T21:23:55.328Z,24.97
2018-10-11T21:26:24.024Z,24.07
2018-10-11T21:28:52.720Z,23.00
2018-10-11T21:31:21.413Z,25.23
2018-10-11T21:33:50.108Z,28.47
2018-10-11T21:36:18.812Z,23.67
2018-10-11T21:38:47.520Z,24.13
2018-10-11T21:41:16.325Z,25.85
2018-10-11T21:43:45.033Z,27.77
2018-10-11T21:46:13.848Z,25.30
2018-10-11T21:48:42.501Z,23.63
2018-10-11T21:51:11.203Z,30.03
2018-10-11T21:53:40.142Z,24.03
2018-10-11T21:56:08.841Z,30.57
2018-10-11T21:58:37.548Z,23.07
2018-10-11T22:01:11.834Z,26.60
2018-10-11T22:03:40.544Z,29.30
2018-10-11T22:06:09.261Z,20.77
2018-10-11T22:08:38.105Z,25.93
2018-10-11T22:11:06.716Z,29.97
2018-10-11T22:13:35.416Z,28.27
2018-10-11T22:16:04.121Z,28.52
2018-10-11T22:18:32.816Z,25.53
2018-10-11T22:21:01.587Z,32.87
2018-10-11T22:23:30.226Z,31.60
2018-10-11T22:25:59.005Z,24.67
2018-10-11T22:28:28.172Z,25.07
2018-10-11T22:30:56.877Z,29.77
2018-10-11T22:33:26.156Z,25.60
2018-10-11T22:35:55.023Z,24.90
2018-10-11T22:38:23.727Z,26.10
2018-10-11T22:40:52.430Z,24.00
2018-10-11T22:43:21.132Z,25.47
2018-10-11T22:45:49.845Z,22.17
2018-10-11T22:48:18.573Z,27.10
2018-10-11T22:50:47.266Z,28.60
2018-10-11T22:53:15.973Z,23.27
2018-10-11T22:55:45.152Z,22.10
2018-10-11T22:58:13.865Z,26.13
2018-10-11T23:00:42.632Z,25.17
2018-10-11T23:03:11.337Z,26.33
2018-10-11T23:05:40.036Z,26.13
2018-10-11T23:08:08.796Z,27.23
2018-10-11T23:10:37.449Z,23.30
2018-10-11T23:13:07.073Z,24.37
2018-10-11T23:15:35.768Z,26.67
2018-10-11T23:18:04.473Z,23.40
2018-10-11T23:20:33.156Z,27.03
2018-10-11T23:23:01.859Z,29.07
2018-10-11T23:25:30.552Z,26.63
2018-10-11T23:27:59.252Z,32.85
2018-10-11T23:30:27.955Z,24.63
2018-10-11T23:32:56.656Z,20.63
2018-10-11T23:35:25.451Z,21.97
2018-10-11T23:37:54.140Z,24.37
2018-10-11T23:40:22.843Z,23.13
2018-10-11T23:42:51.544Z,24.53
2018-10-11T23:45:20.249Z,25.50
2018-10-11T23:47:49.009Z,27.87
2018-10-11T23:50:17.705Z,24.90
2018-10-11T23:52:46.396Z,20.93
2018-10-11T23:55:15.092Z,24.85
2018-10-11T23:57:43.767Z,24.30
